Terminal Aerodrome Forecast
Issued by NWS

Home | Current Version | Previous Version | Text Only | Print | Product List | Glossary On
Versions: 1 2 3 4 5 6 7 8 9 10 11 12 13 14 15
000
FTUS46 KSGX 210500
TAFSNA
TAF
KSNA 210520Z 2106/2206 22006KT P6SM SCT010
     FM210800 VRB04KT P6SM BKN010
     FM211200 VRB04KT 6SM BR BKN009
     FM211800 VRB04KT P6SM SCT014
     FM212000 22008KT P6SM SKC
     FM220200 20006KT P6SM BKN014=

USA.gov is the U.S. government's official web portal to all federal, state and local government web resources and services.